createdAt,value
2022-09-06T00:00:31.987Z,6.14286
2022-09-06T00:01:32.058Z,5.35714
2022-09-06T00:02:32.166Z,5
2022-09-06T00:03:32.272Z,5.71429
2022-09-06T00:04:32.253Z,4.35714
2022-09-06T00:05:32.216Z,4
2022-09-06T00:06:32.260Z,4.42857
2022-09-06T00:07:32.310Z,4.35714
2022-09-06T00:08:32.374Z,3.64286
2022-09-06T00:09:32.398Z,3.85714
2022-09-06T00:10:32.442Z,4.92857
2022-09-06T00:11:32.484Z,3.92857
2022-09-06T00:12:32.549Z,3.85714
2022-09-06T00:13:32.595Z,3.85714
2022-09-06T00:14:32.618Z,5.21429
2022-09-06T00:15:32.721Z,3.92857
2022-09-06T00:16:32.752Z,5.71429
2022-09-06T00:17:32.746Z,4.64286
2022-09-06T00:18:32.814Z,5.64286
2022-09-06T00:19:32.853Z,4.64286
2022-09-06T00:20:32.876Z,4
2022-09-06T00:21:32.916Z,4
2022-09-06T00:22:32.954Z,3
2022-09-06T00:23:33.015Z,5.14286
2022-09-06T00:24:33.038Z,3.85714
2022-09-06T00:25:33.087Z,3.21429
2022-09-06T00:26:33.127Z,5.64286
2022-09-06T00:27:33.164Z,4.42857
2022-09-06T00:28:33.227Z,4.21429
2022-09-06T00:29:33.251Z,4.5
2022-09-06T00:30:33.292Z,4
2022-09-06T00:31:33.409Z,3.42857
2022-09-06T00:32:33.384Z,4.21429
2022-09-06T00:33:33.412Z,3.21429
2022-09-06T00:34:33.456Z,4.35714
2022-09-06T00:35:33.522Z,2.71429
2022-09-06T00:36:33.545Z,4.14286
2022-09-06T00:37:33.588Z,2.71429
2022-09-06T00:38:33.633Z,3.71429
2022-09-06T00:39:33.751Z,2.64286
2022-09-06T00:40:33.737Z,3.14286
2022-09-06T00:41:33.760Z,3.21429
2022-09-06T00:42:33.809Z,2.92857
2022-09-06T00:43:33.846Z,3.14286
2022-09-06T00:44:33.893Z,2.92857
2022-09-06T00:45:33.956Z,2.85714
2022-09-06T00:46:34.066Z,3
2022-09-06T00:47:34.043Z,2.71429
2022-09-06T00:48:34.065Z,3
2022-09-06T00:49:34.103Z,3
2022-09-06T00:50:34.149Z,3
2022-09-06T00:51:34.190Z,2.92857
2022-09-06T00:52:34.255Z,3.5
2022-09-06T00:53:34.276Z,2.71429
2022-09-06T00:54:34.325Z,2.71429
2022-09-06T00:55:34.387Z,4.71429
2022-09-06T00:56:34.430Z,3.85714
2022-09-06T00:57:34.463Z,3.21429
2022-09-06T00:58:34.504Z,3.85714
2022-09-06T00:59:34.547Z,3.64286
2022-09-06T01:00:34.588Z,2.35714
2022-09-06T01:01:34.758Z,3.42857
2022-09-06T01:02:34.773Z,2.5
2022-09-06T01:03:34.716Z,3.14286
2022-09-06T01:04:34.784Z,5.71429
2022-09-06T01:05:34.799Z,2.21429
2022-09-06T01:06:34.875Z,4.14286
2022-09-06T01:07:34.884Z,3
2022-09-06T01:08:34.933Z,3.21429
2022-09-06T01:09:34.978Z,3
2022-09-06T01:10:35.022Z,4
2022-09-06T01:11:35.092Z,3
2022-09-06T01:12:35.103Z,5.14286
2022-09-06T01:13:35.143Z,3.21429
2022-09-06T01:14:35.189Z,2.85714
2022-09-06T01:15:35.350Z,3.92857
2022-09-06T01:16:35.279Z,3.5
2022-09-06T01:17:35.318Z,2.64286
2022-09-06T01:18:35.395Z,2.35714
2022-09-06T01:19:35.398Z,2.5
2022-09-06T01:20:35.443Z,2.35714
2022-09-06T01:21:35.493Z,2.42857
2022-09-06T01:22:35.544Z,2.21429
2022-09-06T01:23:35.603Z,2.92857
2022-09-06T01:24:35.625Z,2.71429
2022-09-06T01:25:35.692Z,2.21429
2022-09-06T01:26:35.710Z,2.85714
2022-09-06T01:27:35.750Z,2.85714
2022-09-06T01:28:35.795Z,2.92857
2022-09-06T01:29:35.861Z,3.64286
2022-09-06T01:30:35.949Z,2.64286
2022-09-06T01:31:35.931Z,2.5
2022-09-06T01:32:35.980Z,2.21429
2022-09-06T01:33:36.048Z,1.92857
2022-09-06T01:34:36.089Z,3
2022-09-06T01:35:36.115Z,2.64286
2022-09-06T01:36:42.486Z,2.64286
2022-09-06T01:37:36.203Z,2.35714
2022-09-06T01:38:36.268Z,3
2022-09-06T01:39:36.397Z,1.92857
2022-09-06T01:40:36.346Z,2.21429
2022-09-06T01:41:36.374Z,3.21429
2022-09-06T01:42:36.441Z,3.21429
2022-09-06T01:43:36.456Z,2
2022-09-06T01:44:36.498Z,1.92857
2022-09-06T01:45:36.547Z,3.14286
2022-09-06T01:46:36.662Z,2.14286
2022-09-06T01:47:36.654Z,2.14286
2022-09-06T01:48:36.668Z,2.35714
2022-09-06T01:49:36.713Z,2.92857
2022-09-06T01:50:36.759Z,3.64286
2022-09-06T01:51:36.802Z,2.42857
2022-09-06T01:52:36.883Z,1.85714
2022-09-06T01:53:36.883Z,2.92857
2022-09-06T01:54:36.916Z,2.5
2022-09-06T01:55:36.958Z,3.35714
2022-09-06T01:56:37.002Z,2.71429
2022-09-06T01:57:37.094Z,2.14286
2022-09-06T01:58:37.096Z,2.14286
2022-09-06T01:59:37.132Z,2.14286
2022-09-06T02:00:37.177Z,2
2022-09-06T02:01:37.245Z,3.5
2022-09-06T02:02:37.368Z,1.85714
2022-09-06T02:03:37.309Z,2.85714
2022-09-06T02:04:37.349Z,1.92857
2022-09-06T02:05:37.394Z,1.92857
2022-09-06T02:06:37.434Z,2.14286
2022-09-06T02:07:37.512Z,2.14286
2022-09-06T02:08:37.523Z,2.21429
2022-09-06T02:09:37.573Z,1.85714
2022-09-06T02:10:37.619Z,1.92857
2022-09-06T02:11:37.663Z,2.5
2022-09-06T02:12:37.730Z,2.21429
2022-09-06T02:13:37.749Z,2
2022-09-06T02:14:37.791Z,2.35714
2022-09-06T02:15:37.855Z,3
2022-09-06T02:16:37.933Z,2.14286
2022-09-06T02:17:37.919Z,2.21429
2022-09-06T02:18:37.963Z,2.21429
2022-09-06T02:19:38.035Z,1.92857
2022-09-06T02:20:38.058Z,2.71429
2022-09-06T02:21:38.103Z,1.85714
2022-09-06T02:22:38.136Z,1.71429
2022-09-06T02:23:38.212Z,2.42857
2022-09-06T02:24:38.232Z,2.14286
2022-09-06T02:25:38.270Z,2.35714
2022-09-06T02:26:38.316Z,1.92857
2022-09-06T02:27:38.356Z,1.92857
2022-09-06T02:28:38.422Z,1.92857
2022-09-06T02:29:38.473Z,2.5
2022-09-06T02:30:38.557Z,1.85714
2022-09-06T02:31:38.525Z,1.92857
2022-09-06T02:32:38.563Z,1.92857
2022-09-06T02:33:38.613Z,1.92857
2022-09-06T02:34:38.669Z,2.5
2022-09-06T02:35:38.717Z,2.35714
2022-09-06T02:36:38.766Z,2.21429
2022-09-06T02:37:38.781Z,2.21429
2022-09-06T02:38:38.823Z,1.71429
2022-09-06T02:39:38.927Z,2.42857
2022-09-06T02:40:38.905Z,2.64286
2022-09-06T02:41:38.966Z,2.14286
2022-09-06T02:42:39.017Z,1.71429
2022-09-06T02:43:39.035Z,1.92857
2022-09-06T02:44:39.116Z,1.71429
2022-09-06T02:45:39.188Z,1.64286
2022-09-06T02:46:39.163Z,1.85714
2022-09-06T02:47:39.206Z,1.92857
2022-09-06T02:48:39.248Z,1.92857
2022-09-06T02:49:39.315Z,2.35714
2022-09-06T02:50:39.344Z,1.92857
2022-09-06T02:51:39.383Z,3
2022-09-06T02:52:39.443Z,2.14286
2022-09-06T02:53:39.469Z,1.64286
2022-09-06T02:54:39.532Z,2
2022-09-06T02:55:39.557Z,1.92857
2022-09-06T02:56:39.597Z,1.85714
2022-09-06T02:57:39.648Z,1.85714
2022-09-06T02:58:39.691Z,1.71429
2022-09-06T02:59:39.756Z,2
2022-09-06T03:00:39.780Z,1.71429
2022-09-06T03:01:39.940Z,1.71429
2022-09-06T03:02:40.035Z,2.42857
2022-09-06T03:03:39.911Z,2.71429
2022-09-06T03:04:39.951Z,1.64286
2022-09-06T03:05:40.002Z,1.71429
2022-09-06T03:06:40.066Z,2.5
2022-09-06T03:07:40.121Z,2.21429
2022-09-06T03:08:40.129Z,1.92857
2022-09-06T03:09:40.175Z,2
2022-09-06T03:10:40.224Z,1.85714
2022-09-06T03:11:40.262Z,4.14286
2022-09-06T03:12:40.336Z,1.92857
2022-09-06T03:13:40.425Z,1.64286
2022-09-06T03:14:40.391Z,2.71429
2022-09-06T03:15:40.436Z,1.71429
2022-09-06T03:16:40.568Z,3
2022-09-06T03:17:40.528Z,1.85714
2022-09-06T03:18:40.609Z,2.42857
2022-09-06T03:19:40.617Z,1.85714
2022-09-06T03:20:40.653Z,1.85714
2022-09-06T03:21:40.694Z,1.85714
2022-09-06T03:22:40.739Z,2.14286
2022-09-06T03:23:40.824Z,1.5
2022-09-06T03:24:40.828Z,2.14286
2022-09-06T03:25:40.877Z,1.42857
2022-09-06T03:26:40.921Z,1.71429
2022-09-06T03:27:40.974Z,1.92857
2022-09-06T03:28:41.027Z,1.92857
2022-09-06T03:29:41.049Z,1.85714
2022-09-06T03:30:41.147Z,1.71429
2022-09-06T03:31:41.152Z,2.14286
2022-09-06T03:32:41.176Z,1.85714
2022-09-06T03:33:41.220Z,2.14286
2022-09-06T03:34:41.249Z,1.64286
2022-09-06T03:35:41.295Z,1.71429
2022-09-06T03:36:41.371Z,1.71429
2022-09-06T03:37:41.385Z,2.5
2022-09-06T03:38:41.426Z,2.5
2022-09-06T03:39:41.507Z,1.71429
2022-09-06T03:40:41.539Z,1.71429
2022-09-06T03:41:41.557Z,2.35714
2022-09-06T03:42:41.603Z,1.92857
2022-09-06T03:43:41.648Z,2.35714
2022-09-06T03:44:41.689Z,1.92857
2022-09-06T03:45:41.821Z,2.14286
2022-09-06T03:46:41.781Z,1.85714
2022-09-06T03:47:41.824Z,2.85714
2022-09-06T03:48:41.871Z,1.71429
2022-09-06T03:49:41.912Z,2.14286
2022-09-06T03:50:41.973Z,1.85714
2022-09-06T03:51:41.990Z,4.14286
2022-09-06T03:52:42.031Z,2.5
2022-09-06T03:53:42.075Z,2.5
2022-09-06T03:54:42.120Z,2.14286
2022-09-06T03:55:42.185Z,1.71429
2022-09-06T03:56:42.202Z,3.85714
2022-09-06T03:57:42.250Z,3.35714
2022-09-06T03:58:42.311Z,4.35714
2022-09-06T03:59:42.334Z,2.42857
2022-09-06T04:00:42.397Z,2.21429
2022-09-06T04:01:42.456Z,1.92857
2022-09-06T04:02:42.508Z,2
2022-09-06T04:03:42.521Z,1.92857
2022-09-06T04:04:42.545Z,3.14286
2022-09-06T04:05:42.585Z,1.85714
2022-09-06T04:06:42.634Z,1.5
2022-09-06T04:07:42.674Z,2.21429
2022-09-06T04:08:42.733Z,3.71429
2022-09-06T04:09:42.788Z,5.64286
2022-09-06T04:10:42.801Z,2
2022-09-06T04:11:45.038Z,2.92857
2022-09-06T04:12:42.908Z,4.14286
2022-09-06T04:13:42.926Z,4.21429
2022-09-06T04:14:42.968Z,2
2022-09-06T04:15:43.012Z,3.71429
2022-09-06T04:16:43.086Z,3.92857
2022-09-06T04:17:43.120Z,4.5
2022-09-06T04:18:43.133Z,3.5
2022-09-06T04:19:43.176Z,3.85714
2022-09-06T04:20:43.217Z,2.21429
2022-09-06T04:21:43.261Z,5.64286
2022-09-06T04:22:43.331Z,1.85714
2022-09-06T04:23:43.351Z,2.21429
2022-09-06T04:24:43.415Z,3.71429
2022-09-06T04:25:43.439Z,2.5
2022-09-06T04:26:43.479Z,3.14286
2022-09-06T04:27:43.541Z,3.64286
2022-09-06T04:28:43.568Z,3.14286
2022-09-06T04:29:43.605Z,4
2022-09-06T04:30:43.658Z,4
2022-09-06T04:31:43.766Z,3.42857
2022-09-06T04:32:43.725Z,1.64286
2022-09-06T04:33:43.772Z,3.5
2022-09-06T04:34:43.818Z,2.5
2022-09-06T04:35:43.889Z,3.35714
2022-09-06T04:36:48.152Z,3.5
2022-09-06T04:37:43.943Z,3
2022-09-06T04:38:44.011Z,2.35714
2022-09-06T04:39:44.059Z,4.5
2022-09-06T04:40:44.067Z,3.35714
2022-09-06T04:41:44.101Z,6.92857
2022-09-06T04:42:44.138Z,3.85714
2022-09-06T04:43:44.204Z,2.64286
2022-09-06T04:44:44.218Z,2.42857
2022-09-06T04:45:44.308Z,2.42857
2022-09-06T04:46:44.298Z,2.42857
2022-09-06T04:47:44.348Z,3
2022-09-06T04:48:44.421Z,3.35714
2022-09-06T04:49:44.431Z,2.21429
2022-09-06T04:50:44.473Z,2
2022-09-06T04:51:44.514Z,3.14286
2022-09-06T04:52:44.559Z,3.21429
2022-09-06T04:53:44.622Z,1.64286
2022-09-06T04:54:44.643Z,2.64286
2022-09-06T04:55:44.688Z,1.92857
2022-09-06T04:56:44.729Z,2.21429
2022-09-06T04:57:47.474Z,2.71429
2022-09-06T04:58:44.836Z,1.85714
2022-09-06T04:59:44.887Z,2.35714
2022-09-06T05:00:44.973Z,2.21429
2022-09-06T05:01:44.974Z,2.42857
2022-09-06T05:02:45.123Z,1.71429
2022-09-06T05:03:45.032Z,3.14286
2022-09-06T05:04:45.075Z,2.85714
2022-09-06T05:05:45.115Z,2
2022-09-06T05:06:45.182Z,3.21429
2022-09-06T05:07:45.232Z,1.85714
2022-09-06T05:08:45.246Z,1.71429
2022-09-06T05:09:45.293Z,2.42857
2022-09-06T05:10:45.334Z,3.35714
2022-09-06T05:11:45.374Z,2.21429
2022-09-06T05:12:45.446Z,2.35714
2022-09-06T05:13:45.464Z,1.85714
2022-09-06T05:14:45.500Z,3.21429
2022-09-06T05:15:45.545Z,1.85714
2022-09-06T05:16:45.673Z,3
2022-09-06T05:17:45.657Z,2.5
2022-09-06T05:18:45.673Z,2.21429
2022-09-06T05:19:45.736Z,1.71429
2022-09-06T05:20:45.759Z,1.71429
2022-09-06T05:21:45.827Z,2.5
2022-09-06T05:22:45.853Z,2.14286
2022-09-06T05:23:45.888Z,1.64286
2022-09-06T05:24:45.933Z,2
2022-09-06T05:25:45.995Z,3.14286
2022-09-06T05:26:46.028Z,1.71429
2022-09-06T05:27:46.075Z,3.14286
2022-09-06T05:28:46.122Z,1.85714
2022-09-06T05:29:46.161Z,4
2022-09-06T05:30:46.231Z,1.42857
2022-09-06T05:31:46.301Z,2.92857
2022-09-06T05:32:46.315Z,1.92857
2022-09-06T05:33:46.329Z,2.14286
2022-09-06T05:34:46.370Z,2.85714
2022-09-06T05:35:46.440Z,1.71429
2022-09-06T05:36:46.459Z,1.64286
2022-09-06T05:37:46.506Z,1.64286
2022-09-06T05:38:46.544Z,2.14286
2022-09-06T05:39:46.668Z,1.92857
2022-09-06T05:40:46.621Z,2
2022-09-06T05:41:46.667Z,2.71429
2022-09-06T05:42:46.709Z,4.21429
2022-09-06T05:43:46.751Z,4.42857
2022-09-06T05:44:46.810Z,2.85714
2022-09-06T05:45:46.891Z,2.5
2022-09-06T05:46:46.874Z,4.35714
2022-09-06T05:47:46.913Z,2.14286
2022-09-06T05:48:46.960Z,3.35714
2022-09-06T05:49:47.020Z,2.14286
2022-09-06T05:50:47.048Z,2.92857
2022-09-06T05:51:47.091Z,3.35714
2022-09-06T05:52:47.181Z,3.71429
2022-09-06T05:53:47.181Z,1.64286
2022-09-06T05:54:47.228Z,3.35714
2022-09-06T05:55:47.273Z,3.14286
2022-09-06T05:56:47.322Z,1.92857
2022-09-06T05:57:47.385Z,2.14286
2022-09-06T05:58:47.406Z,2.21429
2022-09-06T05:59:47.447Z,2.71429
2022-09-06T06:00:47.535Z,2.14286
2022-09-06T06:01:47.561Z,2
2022-09-06T06:02:47.656Z,2.64286
2022-09-06T06:03:47.622Z,2.5
2022-09-06T06:04:47.664Z,3.42857
2022-09-06T06:05:47.709Z,4.21429
2022-09-06T06:06:47.754Z,1.71429
2022-09-06T06:07:47.814Z,2.42857
2022-09-06T06:08:47.847Z,3.14286
2022-09-06T06:09:47.891Z,2.42857
2022-09-06T06:10:47.948Z,2
2022-09-06T06:11:47.970Z,2.21429
2022-09-06T06:12:48.016Z,2.42857
2022-09-06T06:13:48.051Z,2.21429
2022-09-06T06:14:48.098Z,2
2022-09-06T06:15:48.160Z,1.85714
2022-09-06T06:16:48.236Z,3.21429
2022-09-06T06:17:48.227Z,2.14286
2022-09-06T06:18:51.990Z,4.21429
2022-09-06T06:19:48.321Z,3.5
2022-09-06T06:20:48.384Z,2.35714
2022-09-06T06:21:48.417Z,4.35714
2022-09-06T06:22:48.456Z,2.14286
2022-09-06T06:23:48.501Z,1.71429
2022-09-06T06:24:48.558Z,3
2022-09-06T06:25:48.576Z,6.35714
2022-09-06T06:26:48.686Z,2.71429
2022-09-06T06:27:48.662Z,5.35714
2022-09-06T06:28:48.709Z,3.14286
2022-09-06T06:29:48.751Z,6
2022-09-06T06:30:48.788Z,2
2022-09-06T06:31:48.923Z,3
2022-09-06T06:32:48.872Z,3
2022-09-06T06:33:48.911Z,3
2022-09-06T06:34:48.952Z,3.92857
2022-09-06T06:35:48.991Z,4.35714
2022-09-06T06:36:49.076Z,3.71429
2022-09-06T06:37:49.087Z,5.42857
2022-09-06T06:38:49.125Z,9.71429
2022-09-06T06:39:49.258Z,11.8571
2022-09-06T06:40:49.207Z,8.5
2022-09-06T06:41:49.267Z,9.42857
2022-09-06T06:42:49.291Z,11.5
2022-09-06T06:43:49.333Z,103.929
2022-09-06T06:44:49.417Z,124.929
2022-09-06T06:45:49.453Z,179.5
2022-09-06T06:46:49.455Z,227.429
2022-09-06T06:47:49.494Z,216.929
2022-09-06T06:48:54.132Z,231.643
2022-09-06T06:49:49.596Z,219.143
2022-09-06T06:50:49.619Z,203.357
2022-09-06T06:51:49.705Z,200.857
2022-09-06T06:52:49.697Z,237
2022-09-06T06:53:49.733Z,266
2022-09-06T06:54:49.770Z,294.5
2022-09-06T06:55:49.815Z,279.357
2022-09-06T06:56:49.868Z,263.643
2022-09-06T06:57:49.889Z,243.714
2022-09-06T06:58:49.934Z,220.643
2022-09-06T06:59:49.978Z,201.857
2022-09-06T07:00:50.188Z,187.643
2022-09-06T07:01:50.201Z,177.357
2022-09-06T07:02:50.096Z,186.5
2022-09-06T07:03:50.139Z,208
2022-09-06T07:04:50.178Z,238.429
2022-09-06T07:06:13.166Z,268.643
2022-09-06T07:07:50.304Z,252.143
2022-09-06T07:08:50.341Z,259
2022-09-06T07:10:50.427Z,328
2022-09-06T07:11:50.461Z,342
2022-09-06T07:12:50.509Z,351.5
2022-09-06T07:13:50.558Z,381.5
2022-09-06T07:14:50.611Z,395.143
2022-09-06T07:15:50.651Z,403.357
2022-09-06T07:16:50.715Z,391.857
2022-09-06T07:17:50.721Z,403.643
2022-09-06T07:18:50.799Z,411.929
2022-09-06T07:20:14.768Z,393.643
2022-09-06T07:21:50.886Z,446.857
2022-09-06T07:22:50.957Z,465.357
2022-09-06T07:24:06.996Z,447.429
2022-09-06T07:24:51.030Z,424.5
2022-09-06T07:25:51.053Z,394.214
2022-09-06T07:27:51.143Z,339
2022-09-06T07:28:51.161Z,316
2022-09-06T07:29:51.203Z,290.429
2022-09-06T07:30:51.275Z,283
2022-09-06T07:32:12.151Z,244.357
2022-09-06T07:32:51.341Z,232.857
2022-09-06T07:33:55.159Z,212.857
2022-09-06T07:34:51.443Z,211.214
2022-09-06T07:35:51.481Z,186.357
2022-09-06T07:36:51.505Z,210
2022-09-06T07:37:51.546Z,255.143
2022-09-06T07:38:51.587Z,389.214
2022-09-06T07:39:51.710Z,266.357
2022-09-06T07:40:51.697Z,396
2022-09-06T07:41:51.711Z,384.143
2022-09-06T07:42:51.756Z,399.643
2022-09-06T07:43:51.790Z,398.857
2022-09-06T07:44:51.834Z,399.357
2022-09-06T07:45:51.890Z,368.429
2022-09-06T07:46:52.686Z,368.643
2022-09-06T07:47:59.210Z,561.5
2022-09-06T07:48:52.029Z,498.929
2022-09-06T07:50:54.609Z,493.857
2022-09-06T07:51:52.117Z,751.357
2022-09-06T07:53:09.599Z,412.5
2022-09-06T07:53:57.863Z,454.5
2022-09-06T07:54:52.234Z,423.857
2022-09-06T07:55:52.276Z,425.643
2022-09-06T07:56:52.322Z,367.714
2022-09-06T07:57:52.363Z,344.857
2022-09-06T07:58:52.426Z,337.857
2022-09-06T07:59:52.455Z,342.214
2022-09-06T08:00:52.530Z,433.357
2022-09-06T08:01:52.559Z,414.714
2022-09-06T08:02:52.585Z,360.143
2022-09-06T08:03:52.656Z,375
2022-09-06T08:04:52.665Z,451.857
2022-09-06T08:09:00.335Z,388.929
2022-09-06T08:09:52.868Z,392.929
2022-09-06T08:10:52.905Z,421.5
2022-09-06T08:11:53.011Z,414.143
2022-09-06T08:12:52.985Z,401.214
2022-09-06T08:13:53.043Z,385.357
2022-09-06T08:14:53.076Z,385.214
2022-09-06T08:15:53.135Z,390.429
2022-09-06T08:16:53.158Z,390.143
2022-09-06T08:17:53.196Z,441.714
2022-09-06T08:18:53.275Z,458
2022-09-06T08:19:53.279Z,438
2022-09-06T08:20:53.320Z,457.214
2022-09-06T08:21:53.358Z,579.357
2022-09-06T08:22:53.398Z,524.929
2022-09-06T08:23:53.459Z,480.143
2022-09-06T08:24:53.483Z,434.357
2022-09-06T08:25:53.556Z,431.429
2022-09-06T08:26:53.575Z,397.214
2022-09-06T08:27:53.612Z,370.929
2022-09-06T08:28:53.650Z,343.429
2022-09-06T08:29:53.687Z,319.357
2022-09-06T08:30:53.760Z,271.643
2022-09-06T08:31:53.883Z,245.5
2022-09-06T08:32:53.813Z,247.5
2022-09-06T08:33:53.856Z,284.643
2022-09-06T08:34:53.917Z,293.857
2022-09-06T08:35:53.936Z,292.5
2022-09-06T08:36:53.981Z,311.857
2022-09-06T08:37:54.043Z,316.714
2022-09-06T08:38:54.062Z,359.143
2022-09-06T08:39:54.142Z,357.429
2022-09-06T08:40:54.138Z,333.714
2022-09-06T08:41:54.231Z,309.5
2022-09-06T08:42:54.231Z,275.857
2022-09-06T08:45:55.830Z,208.857
2022-09-06T08:46:54.457Z,194.429
2022-09-06T08:47:54.419Z,177.357
2022-09-06T08:48:54.491Z,192.929
2022-09-06T08:49:54.499Z,269.714
2022-09-06T08:50:54.540Z,341.643
2022-09-06T08:51:54.586Z,501.143
2022-09-06T08:53:15.644Z,390.214
2022-09-06T08:53:54.699Z,390.214
2022-09-06T08:54:54.724Z,390.214
2022-09-06T08:55:54.793Z,390.214
2022-09-06T08:56:54.821Z,390.214
2022-09-06T08:57:54.874Z,390.214
2022-09-06T08:58:54.931Z,390.214
2022-09-06T08:59:54.993Z,390.214
2022-09-06T09:00:55.151Z,390.214
2022-09-06T09:01:55.222Z,390.214
2022-09-06T09:02:55.181Z,390.214
2022-09-06T09:03:55.257Z,390.214
2022-09-06T09:04:55.290Z,390.214
2022-09-06T09:05:55.349Z,390.214
2022-09-06T09:06:55.412Z,137.214
2022-09-06T09:07:55.433Z,1036.36
2022-09-06T09:08:55.497Z,291.857
2022-09-06T09:09:55.509Z,135.929
2022-09-06T09:10:55.554Z,97.2143
2022-09-06T09:11:55.627Z,53.5
2022-09-06T09:12:55.650Z,51.2143
2022-09-06T09:13:56.207Z,51.2143
2022-09-06T09:14:55.745Z,24.1429
2022-09-06T09:15:55.876Z,16.1429
2022-09-06T09:16:55.853Z,8.5
2022-09-06T09:17:55.874Z,5.85714
2022-09-06T09:18:55.944Z,3.92857
2022-09-06T09:19:55.961Z,3.35714
2022-09-06T09:20:56.024Z,2.42857
2022-09-06T09:21:56.049Z,1.92857
2022-09-06T09:22:56.090Z,1.85714
2022-09-06T09:23:56.160Z,2
2022-09-06T09:24:56.174Z,1.85714
2022-09-06T09:25:56.216Z,2
2022-09-06T09:26:56.279Z,2.21429
2022-09-06T09:27:56.302Z,2.35714
2022-09-06T09:28:56.372Z,1.5
2022-09-06T09:30:56.510Z,1.92857
2022-09-06T09:31:56.652Z,1.5
2022-09-06T09:32:56.538Z,2.5
2022-09-06T09:33:56.561Z,1.85714
2022-09-06T09:34:56.604Z,1.92857
2022-09-06T09:35:56.647Z,1.71429
2022-09-06T09:37:59.390Z,1.5
2022-09-06T09:38:56.801Z,1.5
2022-09-06T09:39:56.938Z,2
2022-09-06T09:40:56.893Z,1.71429
2022-09-06T09:41:56.916Z,1.85714
2022-09-06T09:42:56.961Z,1.85714
2022-09-06T09:44:00.044Z,1.85714
2022-09-06T09:44:57.091Z,1.85714
2022-09-06T09:45:57.105Z,1.85714
2022-09-06T09:46:57.210Z,1.85714
2022-09-06T09:47:57.198Z,1.85714
2022-09-06T09:48:57.248Z,1.92857
2022-09-06T09:49:57.299Z,1.64286
2022-09-06T09:50:57.323Z,1.85714
2022-09-06T09:51:57.370Z,1.85714
2022-09-06T09:52:57.412Z,3
2022-09-06T09:53:57.478Z,1.85714
2022-09-06T09:54:57.545Z,1.92857
2022-09-06T09:55:57.549Z,2
2022-09-06T09:56:57.594Z,2.21429
2022-09-06T09:57:57.641Z,1.92857
2022-09-06T09:58:57.683Z,1.92857
2022-09-06T09:59:57.749Z,2
2022-09-06T10:00:57.817Z,2.35714
2022-09-06T10:01:57.841Z,1.92857
2022-09-06T10:02:57.923Z,2
2022-09-06T10:04:57.955Z,2.42857
2022-09-06T10:06:02.393Z,2.21429
2022-09-06T10:07:10.675Z,2
2022-09-06T10:07:58.093Z,2
2022-09-06T10:08:58.133Z,2
2022-09-06T10:09:58.179Z,1.85714
2022-09-06T10:10:58.243Z,1.92857
2022-09-06T10:11:58.300Z,1.92857
2022-09-06T10:12:58.346Z,1.92857
2022-09-06T10:13:58.362Z,2.35714
2022-09-06T10:15:00.211Z,2
2022-09-06T10:15:58.530Z,2
2022-09-06T10:16:58.488Z,2
2022-09-06T10:17:58.531Z,1.85714
2022-09-06T10:18:58.597Z,2.14286
2022-09-06T10:19:58.618Z,2
2022-09-06T10:20:58.664Z,1.85714
2022-09-06T10:21:58.724Z,1.92857
2022-09-06T10:22:58.752Z,2
2022-09-06T10:24:26.293Z,1.85714
2022-09-06T10:24:58.843Z,2.14286
2022-09-06T10:25:58.889Z,1.71429
2022-09-06T10:26:58.952Z,1.5
2022-09-06T10:28:10.934Z,1.5
2022-09-06T10:28:59.026Z,1.92857
2022-09-06T10:29:59.097Z,1.85714
2022-09-06T10:30:59.132Z,1.71429
2022-09-06T10:31:59.163Z,1.85714
2022-09-06T10:32:59.206Z,1.64286
2022-09-06T10:33:59.258Z,2
2022-09-06T10:34:59.327Z,1.5
2022-09-06T10:35:59.337Z,1.71429
2022-09-06T10:36:59.383Z,2.14286
2022-09-06T10:37:59.420Z,2.92857
2022-09-06T10:39:03.664Z,1.85714
2022-09-06T10:39:59.620Z,1.85714
2022-09-06T10:40:59.555Z,1.92857
2022-09-06T10:41:59.602Z,2.71429
2022-09-06T10:42:59.643Z,2.35714
2022-09-06T10:43:59.689Z,2.21429
2022-09-06T10:44:59.763Z,2.42857
2022-09-06T10:45:59.771Z,2
2022-09-06T10:46:59.814Z,2.35714
2022-09-06T10:47:59.859Z,1.85714
2022-09-06T10:48:59.902Z,2.35714
2022-09-06T10:49:59.970Z,2.85714
2022-09-06T10:50:59.993Z,2.14286
2022-09-06T10:52:00.040Z,2.42857
2022-09-06T10:53:00.085Z,2.21429
2022-09-06T10:54:00.132Z,2
2022-09-06T10:55:00.192Z,2
2022-09-06T10:56:01.618Z,2.35714
2022-09-06T10:57:00.245Z,2
2022-09-06T11:00:00.397Z,2
2022-09-06T11:01:00.443Z,2
2022-09-06T11:02:00.555Z,1.92857
2022-09-06T11:04:04.475Z,3.14286
2022-09-06T11:06:00.651Z,1.85714
2022-09-06T11:07:00.701Z,2
2022-09-06T11:09:01.030Z,2.35714
2022-09-06T11:10:00.844Z,2.14286
2022-09-06T11:11:00.894Z,2.35714
2022-09-06T11:12:00.944Z,2.14286
2022-09-06T11:13:00.986Z,2.14286
2022-09-06T11:14:05.410Z,2
2022-09-06T11:15:01.078Z,2.14286
2022-09-06T11:16:01.172Z,2
2022-09-06T11:17:01.167Z,2.21429
2022-09-06T11:18:01.209Z,2.14286
2022-09-06T11:19:01.247Z,2.5
2022-09-06T11:20:01.289Z,1.71429
2022-09-06T11:21:01.342Z,2
2022-09-06T11:22:01.380Z,2.21429
2022-09-06T11:23:01.448Z,2.35714
2022-09-06T11:24:01.471Z,2.64286
2022-09-06T11:25:01.547Z,3.5
2022-09-06T11:26:01.563Z,2.71429
2022-09-06T11:27:01.606Z,2.14286
2022-09-06T11:28:01.665Z,2.35714
2022-09-06T11:29:01.689Z,2.21429
2022-09-06T11:30:01.772Z,2.14286
2022-09-06T11:31:01.856Z,2.5
2022-09-06T11:32:17.886Z,2.71429
2022-09-06T11:33:01.873Z,2.14286
2022-09-06T11:34:01.916Z,2.42857
2022-09-06T11:35:01.967Z,2.71429
2022-09-06T11:36:02.021Z,2.42857
2022-09-06T11:37:02.052Z,2.5
2022-09-06T11:38:02.094Z,2.35714
2022-09-06T11:39:02.147Z,2.35714
2022-09-06T11:40:30.456Z,2.35714
2022-09-06T11:41:02.245Z,2.21429
2022-09-06T11:42:02.290Z,2.21429
2022-09-06T11:43:02.341Z,2.35714
2022-09-06T11:44:02.385Z,1.92857
2022-09-06T11:45:02.448Z,2.21429
2022-09-06T11:46:02.535Z,2.14286
2022-09-06T11:47:02.519Z,2.14286
2022-09-06T11:48:02.561Z,1.85714
2022-09-06T11:49:02.607Z,2.21429
2022-09-06T11:50:02.672Z,1.71429
2022-09-06T11:51:02.694Z,1.85714
2022-09-06T11:52:02.742Z,1.85714
2022-09-06T11:53:02.789Z,1.92857
2022-09-06T11:54:02.830Z,2
2022-09-06T11:55:02.892Z,1.92857
2022-09-06T11:56:02.915Z,2.35714
2022-09-06T11:57:02.958Z,2.42857
2022-09-06T11:58:03.001Z,2.14286
2022-09-06T11:59:03.061Z,2
2022-09-06T12:00:03.102Z,1.92857
2022-09-06T12:01:03.140Z,2.21429
2022-09-06T12:02:03.187Z,2.21429
2022-09-06T12:05:03.358Z,1.71429
2022-09-06T12:06:03.369Z,2.14286
2022-09-06T12:07:03.413Z,2.85714
2022-09-06T12:08:03.455Z,1.92857
2022-09-06T12:09:03.506Z,1.92857
2022-09-06T12:10:03.574Z,2.71429
2022-09-06T12:11:03.595Z,2.35714
2022-09-06T12:12:03.644Z,2.64286
2022-09-06T12:13:03.686Z,2.42857
2022-09-06T12:14:03.733Z,2.92857
2022-09-06T12:15:03.803Z,2.71429
2022-09-06T12:16:03.874Z,2.71429
2022-09-06T12:17:03.867Z,2.64286
2022-09-06T12:18:03.916Z,2.42857
2022-09-06T12:19:03.982Z,2.71429
2022-09-06T12:20:04.004Z,3.64286
2022-09-06T12:21:04.046Z,3
2022-09-06T12:22:04.120Z,3
2022-09-06T12:23:04.141Z,2.85714
2022-09-06T12:24:04.189Z,3
2022-09-06T12:25:04.225Z,3
2022-09-06T12:26:04.274Z,3
2022-09-06T12:27:04.346Z,2.42857
2022-09-06T12:28:04.355Z,2.5
2022-09-06T12:29:04.408Z,2.64286
2022-09-06T12:30:04.580Z,2.64286
2022-09-06T12:31:04.542Z,2.64286
2022-09-06T12:32:04.562Z,2.42857
2022-09-06T12:33:04.584Z,2.35714
2022-09-06T12:34:04.620Z,2.71429
2022-09-06T12:36:07.719Z,2.5
2022-09-06T12:37:04.798Z,2.35714
2022-09-06T12:38:04.801Z,2.21429
2022-09-06T12:39:04.846Z,2.64286
2022-09-06T12:40:05.063Z,2.5
2022-09-06T12:41:04.938Z,2.92857
2022-09-06T12:42:05.011Z,2.21429
2022-09-06T12:43:05.025Z,2.42857
2022-09-06T12:44:05.091Z,2.5
2022-09-06T12:45:05.107Z,2.42857
2022-09-06T12:46:05.240Z,2.71429
2022-09-06T12:47:05.191Z,2.64286
2022-09-06T12:48:05.233Z,2.35714
2022-09-06T12:49:05.299Z,2.21429
2022-09-06T12:50:05.322Z,2.35714
2022-09-06T12:51:05.369Z,2.5